Terminal Aerodrome Forecast
Issued by NWS Mt. Holly, NJ

Home | Current Version | Previous Version | Text Only | Print | Product List | Glossary On
Versions: 1 2 3 4 5 6 7 8 9 10 11 12 13 14 15 16 17 18 19 20 21 22 23 24
000
FTAK31 PANC 172325 CCA
TAFABE
TAF COR
PABE 172325Z 1800/1824 01008KT P6SM SCT250
      TEMPO 1800/1804 OVC022
     FM180900 29008KT 6SM BR SCT250
     FM181800 27009KT 4SM BR OVC250
     FM182100 30011KT P6SM OVC025=

USA.gov is the U.S. government's official web portal to all federal, state and local government web resources and services.